createdAt,value
2019-01-24T00:02:12.756Z,15.95
2019-01-24T00:04:44.123Z,15.18
2019-01-24T00:07:15.770Z,14.07
2019-01-24T00:09:47.360Z,14.00
2019-01-24T00:12:18.857Z,12.75
2019-01-24T00:14:50.174Z,13.45
2019-01-24T00:17:21.633Z,13.80
2019-01-24T00:19:53.271Z,15.85
2019-01-24T00:22:24.660Z,14.20
2019-01-24T00:24:55.996Z,17.23
2019-01-24T00:27:27.364Z,14.55
2019-01-24T00:29:58.869Z,12.47
2019-01-24T00:32:30.160Z,14.83
2019-01-24T00:35:01.581Z,12.82
2019-01-24T00:37:33.107Z,14.80
2019-01-24T00:40:05.047Z,12.20
2019-01-24T00:42:36.315Z,13.50
2019-01-24T00:45:08.688Z,10.68
2019-01-24T00:47:40.165Z,9.45
2019-01-24T00:50:11.763Z,18.40
2019-01-24T00:52:43.354Z,13.28
2019-01-24T00:55:15.471Z,12.58
2019-01-24T00:57:46.694Z,13.05
2019-01-24T01:00:20.937Z,12.47
2019-01-24T01:02:52.491Z,14.60
2019-01-24T01:05:24.005Z,15.38
2019-01-24T01:07:55.665Z,16.85
2019-01-24T01:10:27.408Z,15.70
2019-01-24T01:12:58.760Z,17.87
2019-01-24T01:15:30.139Z,16.40
2019-01-24T01:18:01.502Z,18.48
2019-01-24T01:20:32.784Z,14.28
2019-01-24T01:23:04.559Z,15.58
2019-01-24T01:25:36.348Z,12.65
2019-01-24T01:28:08.057Z,13.15
2019-01-24T01:30:39.785Z,14.20
2019-01-24T01:33:11.380Z,14.83
2019-01-24T01:35:43.131Z,12.35
2019-01-24T01:38:14.439Z,9.55
2019-01-24T01:40:45.738Z,9.23
2019-01-24T01:43:17.081Z,12.60
2019-01-24T01:45:48.359Z,8.55
2019-01-24T01:48:19.819Z,9.10
2019-01-24T01:50:51.256Z,5.53
2019-01-24T01:53:22.580Z,6.90
2019-01-24T01:55:54.214Z,5.58
2019-01-24T01:58:25.782Z,6.40
2019-01-24T02:00:57.032Z,4.78
2019-01-24T02:03:28.493Z,5.95
2019-01-24T02:05:59.770Z,6.62
2019-01-24T02:08:31.193Z,6.80
2019-01-24T02:11:02.827Z,5.50
2019-01-24T02:13:34.379Z,5.00
2019-01-24T02:16:06.057Z,5.15
2019-01-24T02:18:37.360Z,4.97
2019-01-24T02:21:08.607Z,5.47
2019-01-24T02:23:40.198Z,4.40
2019-01-24T02:26:12.855Z,4.75
2019-01-24T02:28:44.525Z,4.58
2019-01-24T02:31:16.168Z,3.80
2019-01-24T02:33:47.561Z,4.92
2019-01-24T02:36:18.997Z,3.40
2019-01-24T02:38:50.841Z,2.98
2019-01-24T02:41:22.308Z,2.95
2019-01-24T02:43:53.950Z,3.10
2019-01-24T02:46:25.527Z,2.15
2019-01-24T02:48:57.042Z,2.05
2019-01-24T02:51:28.498Z,1.20
2019-01-24T02:53:59.943Z,2.05
2019-01-24T02:56:31.480Z,2.30
2019-01-24T02:59:02.858Z,2.98
2019-01-24T03:01:34.351Z,3.45
2019-01-24T03:04:06.325Z,1.77
2019-01-24T03:06:37.649Z,2.67
2019-01-24T03:09:09.362Z,1.67
2019-01-24T03:11:41.130Z,2.30
2019-01-24T03:14:13.637Z,2.45
2019-01-24T03:16:45.198Z,2.02
2019-01-24T03:19:16.610Z,1.85
2019-01-24T03:21:48.351Z,2.30
2019-01-24T03:24:19.697Z,1.90
2019-01-24T03:26:52.337Z,3.95
2019-01-24T03:29:23.756Z,0.88
2019-01-24T03:31:55.520Z,1.40
2019-01-24T03:34:27.156Z,1.55
2019-01-24T03:36:58.565Z,1.40
2019-01-24T03:39:30.182Z,4.50
2019-01-24T03:42:01.745Z,2.72
2019-01-24T03:44:34.121Z,2.62
2019-01-24T03:47:05.486Z,2.15
2019-01-24T03:49:36.748Z,1.27
2019-01-24T03:52:08.263Z,2.10
2019-01-24T03:54:39.647Z,1.60
2019-01-24T03:57:11.044Z,1.40
2019-01-24T03:59:42.469Z,1.47
2019-01-24T04:02:14.019Z,0.93
2019-01-24T04:04:45.614Z,1.45
2019-01-24T04:07:17.087Z,1.80
2019-01-24T04:09:48.568Z,1.60
2019-01-24T04:12:20.082Z,1.40
2019-01-24T04:14:51.394Z,1.50
2019-01-24T04:17:23.055Z,1.10
2019-01-24T04:19:54.606Z,1.35
2019-01-24T04:22:26.192Z,1.80
2019-01-24T04:24:57.709Z,2.12
2019-01-24T04:27:29.059Z,1.52
2019-01-24T04:30:00.513Z,1.35
2019-01-24T04:32:32.004Z,1.10
2019-01-24T04:35:03.605Z,1.70
2019-01-24T04:37:35.225Z,1.42
2019-01-24T04:40:08.287Z,1.20
2019-01-24T04:42:40.004Z,1.20
2019-01-24T04:45:12.870Z,1.25
2019-01-24T04:47:44.417Z,1.37
2019-01-24T04:50:16.976Z,1.80
2019-01-24T04:52:48.407Z,1.07
2019-01-24T04:55:21.358Z,1.40
2019-01-24T04:57:52.715Z,1.35
2019-01-24T05:00:31.882Z,1.50
2019-01-24T05:03:03.567Z,1.07
2019-01-24T05:05:35.128Z,1.70
2019-01-24T05:08:06.695Z,1.30
2019-01-24T05:10:38.594Z,1.22
2019-01-24T05:13:09.996Z,1.92
2019-01-24T05:15:41.653Z,1.62
2019-01-24T05:18:13.217Z,1.65
2019-01-24T05:20:44.824Z,2.77
2019-01-24T05:23:16.259Z,1.25
2019-01-24T05:25:47.593Z,1.57
2019-01-24T05:28:18.841Z,1.60
2019-01-24T05:30:50.295Z,1.30
2019-01-24T05:33:21.795Z,1.42
2019-01-24T05:35:53.129Z,1.85
2019-01-24T05:38:24.850Z,1.67
2019-01-24T05:40:56.282Z,2.55
2019-01-24T05:43:27.777Z,2.47
2019-01-24T05:45:59.118Z,4.00
2019-01-24T05:48:30.936Z,2.00
2019-01-24T05:51:02.439Z,4.83
2019-01-24T05:53:34.197Z,2.90
2019-01-24T05:56:05.624Z,2.75
2019-01-24T05:58:37.442Z,3.42
2019-01-24T06:01:09.914Z,3.65
2019-01-24T06:03:42.549Z,2.98
2019-01-24T06:06:14.817Z,2.95
2019-01-24T06:08:46.441Z,2.70
2019-01-24T06:11:18.192Z,2.92
2019-01-24T06:13:49.800Z,4.15
2019-01-24T06:16:21.521Z,4.97
2019-01-24T06:18:53.177Z,5.40
2019-01-24T06:21:24.677Z,4.58
2019-01-24T06:23:56.486Z,4.33
2019-01-24T06:26:28.053Z,5.12
2019-01-24T06:28:59.876Z,4.30
2019-01-24T06:31:31.684Z,4.28
2019-01-24T06:34:03.261Z,4.28
2019-01-24T06:36:34.950Z,4.08
2019-01-24T06:39:09.338Z,4.83
2019-01-24T06:41:40.576Z,6.60
2019-01-24T06:44:12.251Z,6.70
2019-01-24T06:46:43.712Z,7.25
2019-01-24T06:49:15.350Z,6.50
2019-01-24T06:51:47.051Z,5.42
2019-01-24T06:54:18.557Z,6.92
2019-01-24T06:56:50.335Z,6.67
2019-01-24T06:59:22.059Z,5.70
2019-01-24T07:01:53.526Z,5.37
2019-01-24T07:04:25.214Z,5.53
2019-01-24T07:06:56.811Z,7.15
2019-01-24T07:09:28.430Z,8.18
2019-01-24T07:12:00.040Z,6.62
2019-01-24T07:14:31.543Z,6.12
2019-01-24T07:17:02.917Z,6.37
2019-01-24T07:19:34.652Z,6.90
2019-01-24T07:22:06.498Z,7.03
2019-01-24T07:24:37.796Z,5.58
2019-01-24T07:27:09.399Z,6.10
2019-01-24T07:29:40.675Z,5.85
2019-01-24T07:32:12.227Z,6.45
2019-01-24T07:34:43.964Z,9.13
2019-01-24T07:37:15.733Z,9.48
2019-01-24T07:39:47.028Z,8.43
2019-01-24T07:42:18.606Z,7.15
2019-01-24T07:44:50.168Z,12.47
2019-01-24T07:47:21.679Z,6.00
2019-01-24T07:49:53.038Z,7.85
2019-01-24T07:52:24.595Z,8.68
2019-01-24T07:54:56.248Z,7.45
2019-01-24T07:57:28.007Z,7.95
2019-01-24T07:59:59.673Z,7.47
2019-01-24T08:02:31.222Z,7.08
2019-01-24T08:05:02.497Z,7.12
2019-01-24T08:07:34.321Z,7.33
2019-01-24T08:10:08.163Z,5.40
2019-01-24T08:12:39.471Z,7.83
2019-01-24T08:15:12.829Z,8.55
2019-01-24T08:17:44.746Z,6.70
2019-01-24T08:20:18.010Z,9.88
2019-01-24T08:22:49.765Z,7.55
2019-01-24T08:25:21.640Z,6.47
2019-01-24T08:27:53.380Z,6.33
2019-01-24T08:30:26.921Z,6.97
2019-01-24T08:32:58.418Z,5.60
2019-01-24T08:35:30.195Z,8.08
2019-01-24T08:38:01.732Z,7.35
2019-01-24T08:40:33.291Z,6.72
2019-01-24T08:43:06.350Z,6.67
2019-01-24T08:45:37.967Z,7.58
2019-01-24T08:48:09.496Z,5.45
2019-01-24T08:50:40.958Z,6.17
2019-01-24T08:53:12.514Z,6.00
2019-01-24T08:55:44.934Z,6.75
2019-01-24T08:58:16.406Z,5.65
2019-01-24T09:00:47.936Z,6.10
2019-01-24T09:03:19.467Z,7.42
2019-01-24T09:05:50.871Z,8.43
2019-01-24T09:08:22.337Z,8.98
2019-01-24T09:10:53.814Z,11.35
2019-01-24T09:13:25.708Z,10.75
2019-01-24T09:15:57.256Z,42.48
2019-01-24T09:18:29.155Z,23.60
2019-01-24T09:21:02.158Z,10.72
2019-01-24T09:23:33.526Z,12.18
2019-01-24T09:26:05.621Z,11.40
2019-01-24T09:28:37.494Z,12.63
2019-01-24T09:31:09.288Z,13.08
2019-01-24T09:33:40.811Z,14.13
2019-01-24T09:36:12.246Z,31.25
2019-01-24T09:38:43.962Z,15.95
2019-01-24T09:41:15.536Z,16.12
2019-01-24T09:43:47.185Z,15.72
2019-01-24T09:46:19.039Z,16.87
2019-01-24T09:48:50.816Z,15.05
2019-01-24T09:51:22.049Z,13.62
2019-01-24T09:53:53.671Z,11.45
2019-01-24T09:56:25.163Z,11.53
2019-01-24T09:58:57.058Z,12.30
2019-01-24T10:01:28.905Z,12.13
2019-01-24T10:04:00.535Z,12.00
2019-01-24T10:06:36.276Z,10.85
2019-01-24T10:09:08.635Z,12.28
2019-01-24T10:11:40.260Z,13.58
2019-01-24T10:14:13.210Z,13.05
2019-01-24T10:16:44.767Z,20.15
2019-01-24T10:19:16.692Z,20.75
2019-01-24T10:21:48.139Z,29.57
2019-01-24T10:24:19.762Z,24.35
2019-01-24T10:26:51.184Z,28.65
2019-01-24T10:29:22.937Z,28.90
2019-01-24T10:31:54.602Z,24.92
2019-01-24T10:34:26.350Z,28.17
2019-01-24T10:36:57.949Z,24.27
2019-01-24T10:39:29.796Z,24.20
2019-01-24T10:42:01.426Z,28.65
2019-01-24T10:44:33.245Z,26.82
2019-01-24T10:47:05.064Z,26.15
2019-01-24T10:49:36.689Z,27.07
2019-01-24T10:52:09.566Z,27.55
2019-01-24T10:54:41.198Z,29.00
2019-01-24T10:57:12.841Z,68.62
2019-01-24T10:59:44.105Z,31.95
2019-01-24T11:02:15.851Z,31.30
2019-01-24T11:04:47.555Z,26.90
2019-01-24T11:07:19.518Z,27.32
2019-01-24T11:09:50.908Z,31.70
2019-01-24T11:12:22.642Z,29.02
2019-01-24T11:14:54.065Z,28.30
2019-01-24T11:17:25.577Z,27.62
2019-01-24T11:19:57.111Z,26.17
2019-01-24T11:22:28.690Z,30.75
2019-01-24T11:25:00.361Z,29.35
2019-01-24T11:27:31.914Z,30.48
2019-01-24T11:30:03.619Z,27.37
2019-01-24T11:32:35.495Z,28.50
2019-01-24T11:35:09.678Z,25.68
2019-01-24T11:37:41.537Z,25.60
2019-01-24T11:40:14.962Z,23.10
2019-01-24T11:42:46.855Z,24.35
2019-01-24T11:45:19.256Z,23.98
2019-01-24T11:47:50.758Z,24.43
2019-01-24T11:50:22.262Z,26.33
2019-01-24T11:52:53.820Z,25.65
2019-01-24T11:55:25.360Z,25.90
2019-01-24T11:57:56.757Z,30.30
2019-01-24T12:00:33.213Z,30.62
2019-01-24T12:03:05.357Z,28.42
2019-01-24T12:05:36.923Z,30.20
2019-01-24T12:08:09.281Z,29.48
2019-01-24T12:10:40.629Z,23.05
2019-01-24T12:13:12.393Z,18.90
2019-01-24T12:15:44.042Z,19.80
2019-01-24T12:18:15.745Z,21.57
2019-01-24T12:20:47.388Z,23.87
2019-01-24T12:23:18.635Z,26.35
2019-01-24T12:25:49.937Z,23.55
2019-01-24T12:28:21.210Z,23.98
2019-01-24T12:30:52.585Z,24.50
2019-01-24T12:33:24.045Z,19.42
2019-01-24T12:35:55.298Z,17.75
2019-01-24T12:38:26.932Z,17.65
2019-01-24T12:40:58.326Z,17.42
2019-01-24T12:43:29.704Z,16.82
2019-01-24T12:46:01.019Z,14.58
2019-01-24T12:48:32.647Z,17.10
2019-01-24T12:51:04.011Z,14.45
2019-01-24T12:53:35.586Z,14.87
2019-01-24T12:56:07.307Z,14.85
2019-01-24T12:58:39.227Z,12.73
2019-01-24T13:01:11.827Z,12.23
2019-01-24T13:03:43.421Z,16.45
2019-01-24T13:06:15.084Z,12.63
2019-01-24T13:08:46.650Z,11.68
2019-01-24T13:11:18.670Z,12.33
2019-01-24T13:13:50.463Z,13.72
2019-01-24T13:16:21.798Z,12.78
2019-01-24T13:18:53.046Z,14.33
2019-01-24T13:21:24.675Z,11.53
2019-01-24T13:23:56.154Z,12.90
2019-01-24T13:26:27.828Z,11.78
2019-01-24T13:28:59.445Z,14.13
2019-01-24T13:31:31.246Z,14.13
2019-01-24T13:34:02.827Z,11.35
2019-01-24T13:36:34.492Z,13.40
2019-01-24T13:39:10.631Z,14.38
2019-01-24T13:41:42.763Z,14.28
2019-01-24T13:44:15.502Z,13.62
2019-01-24T13:46:47.020Z,15.13
2019-01-24T13:49:18.674Z,12.98
2019-01-24T13:51:50.112Z,11.83
2019-01-24T13:54:21.855Z,13.00
2019-01-24T13:56:53.307Z,11.73
2019-01-24T13:59:24.899Z,12.58
2019-01-24T14:01:56.337Z,12.65
2019-01-24T14:04:40.851Z,13.45
2019-01-24T14:07:12.453Z,12.75
2019-01-24T14:09:44.269Z,16.90
2019-01-24T14:12:15.976Z,14.00
2019-01-24T14:14:47.581Z,12.10
2019-01-24T14:17:18.804Z,13.88
2019-01-24T14:19:50.564Z,13.85
2019-01-24T14:22:22.236Z,15.45
2019-01-24T14:24:53.831Z,14.18
2019-01-24T14:27:25.562Z,13.60
2019-01-24T14:29:57.472Z,13.00
2019-01-24T14:32:29.068Z,14.55
2019-01-24T14:35:01.150Z,14.23
2019-01-24T14:37:39.565Z,13.88
2019-01-24T14:40:07.079Z,13.95
2019-01-24T14:42:38.747Z,16.48
2019-01-24T14:45:13.022Z,13.75
2019-01-24T14:47:44.652Z,11.00
2019-01-24T14:50:21.519Z,17.45
2019-01-24T14:52:53.586Z,13.70
2019-01-24T14:55:25.241Z,11.08
2019-01-24T14:57:57.027Z,10.98
2019-01-24T15:00:40.238Z,9.68
2019-01-24T15:03:12.047Z,12.53
2019-01-24T15:05:44.464Z,10.63
2019-01-24T15:08:16.247Z,12.50
2019-01-24T15:10:47.600Z,11.78
2019-01-24T15:13:25.147Z,12.18
2019-01-24T15:15:58.685Z,11.68
2019-01-24T15:18:30.293Z,11.43
2019-01-24T15:21:01.997Z,11.22
2019-01-24T15:23:33.449Z,11.80
2019-01-24T15:26:04.901Z,11.35
2019-01-24T15:28:36.871Z,10.90
2019-01-24T15:31:08.527Z,11.57
2019-01-24T15:33:39.944Z,14.43
2019-01-24T15:36:11.597Z,12.53
2019-01-24T15:38:43.228Z,13.25
2019-01-24T15:41:14.686Z,14.10
2019-01-24T15:43:46.339Z,12.45
2019-01-24T15:46:17.939Z,15.25
2019-01-24T15:48:49.523Z,14.10
2019-01-24T15:51:21.324Z,15.43
2019-01-24T15:53:52.877Z,18.45
2019-01-24T15:56:24.216Z,17.35
2019-01-24T15:58:55.927Z,14.35
2019-01-24T16:01:27.609Z,15.75
2019-01-24T16:03:58.936Z,12.98
2019-01-24T16:06:30.753Z,12.90
2019-01-24T16:09:02.272Z,11.53
2019-01-24T16:11:35.440Z,10.53
2019-01-24T16:14:07.213Z,9.95
2019-01-24T16:16:38.884Z,9.90
2019-01-24T16:19:10.831Z,11.25
2019-01-24T16:21:42.283Z,9.13
2019-01-24T16:24:13.868Z,9.38
2019-01-24T16:26:45.557Z,10.90
2019-01-24T16:29:17.258Z,10.38
2019-01-24T16:31:49.128Z,9.70
2019-01-24T16:34:20.715Z,10.45
2019-01-24T16:36:52.560Z,12.07
2019-01-24T16:39:23.880Z,12.07
2019-01-24T16:41:55.479Z,12.47
2019-01-24T16:44:27.034Z,11.08
2019-01-24T16:46:58.925Z,12.23
2019-01-24T16:49:30.760Z,12.45
2019-01-24T16:52:02.273Z,11.93
2019-01-24T16:54:33.911Z,11.93
2019-01-24T16:57:05.328Z,10.98
2019-01-24T16:59:37.213Z,11.93
2019-01-24T17:02:08.762Z,12.03
2019-01-24T17:04:40.380Z,11.48
2019-01-24T17:07:11.937Z,14.13
2019-01-24T17:09:43.489Z,13.70
2019-01-24T17:12:15.159Z,15.83
2019-01-24T17:14:46.882Z,14.75
2019-01-24T17:17:18.539Z,12.05
2019-01-24T17:19:50.071Z,10.40
2019-01-24T17:22:21.705Z,12.93
2019-01-24T17:24:54.255Z,15.65
2019-01-24T17:27:25.786Z,13.65
2019-01-24T17:29:57.133Z,14.85
2019-01-24T17:32:29.610Z,12.85
2019-01-24T17:35:01.213Z,13.40
2019-01-24T17:37:32.679Z,15.45
2019-01-24T17:40:04.298Z,14.20
2019-01-24T17:42:35.854Z,13.30
2019-01-24T17:45:08.959Z,15.40
2019-01-24T17:47:40.439Z,17.52
2019-01-24T17:50:12.792Z,13.05
2019-01-24T17:52:44.348Z,12.58
2019-01-24T17:55:36.061Z,12.33
2019-01-24T17:58:09.984Z,13.25
2019-01-24T18:00:52.153Z,11.88
2019-01-24T18:03:23.926Z,13.38
2019-01-24T18:05:55.768Z,13.70
2019-01-24T18:08:31.234Z,12.50
2019-01-24T18:11:00.831Z,11.63
2019-01-24T18:13:32.535Z,11.55
2019-01-24T18:16:04.146Z,12.25
2019-01-24T18:18:35.671Z,12.95
2019-01-24T18:21:07.496Z,13.53
2019-01-24T18:23:39.277Z,13.30
2019-01-24T18:26:12.030Z,12.60
2019-01-24T18:28:43.805Z,12.60
2019-01-24T18:31:15.281Z,14.30
2019-01-24T18:33:47.126Z,13.10
2019-01-24T18:36:18.805Z,12.90
2019-01-24T18:38:50.266Z,13.03
2019-01-24T18:41:21.848Z,13.88
2019-01-24T18:43:53.667Z,14.58
2019-01-24T18:46:25.317Z,14.95
2019-01-24T18:48:56.914Z,22.17
2019-01-24T18:51:28.561Z,12.68
2019-01-24T18:54:00.273Z,20.82
2019-01-24T18:56:31.734Z,12.90
2019-01-24T18:59:03.368Z,14.10
2019-01-24T19:01:35.089Z,14.38
2019-01-24T19:04:06.854Z,13.53
2019-01-24T19:06:38.420Z,12.07
2019-01-24T19:09:11.129Z,13.38
2019-01-24T19:11:42.895Z,11.03
2019-01-24T19:14:14.339Z,14.93
2019-01-24T19:16:46.152Z,13.45
2019-01-24T19:19:17.896Z,17.45
2019-01-24T19:21:49.514Z,11.38
2019-01-24T19:24:21.039Z,12.00
2019-01-24T19:26:52.458Z,12.82
2019-01-24T19:29:24.062Z,12.37
2019-01-24T19:31:55.566Z,11.83
2019-01-24T19:34:27.353Z,12.70
2019-01-24T19:36:58.907Z,12.35
2019-01-24T19:39:30.643Z,13.43
2019-01-24T19:42:01.930Z,15.40
2019-01-24T19:44:33.558Z,14.28
2019-01-24T19:47:04.943Z,13.22
2019-01-24T19:49:36.518Z,17.67
2019-01-24T19:52:08.240Z,14.47
2019-01-24T19:54:39.734Z,13.58
2019-01-24T19:57:11.537Z,12.33
2019-01-24T19:59:42.966Z,13.60
2019-01-24T20:02:14.690Z,14.07
2019-01-24T20:04:46.277Z,14.78
2019-01-24T20:07:18.117Z,16.45
2019-01-24T20:09:49.942Z,21.35
2019-01-24T20:12:21.525Z,36.95
2019-01-24T20:14:52.863Z,41.28
2019-01-24T20:17:24.228Z,31.37
2019-01-24T20:19:55.825Z,22.45
2019-01-24T20:22:27.240Z,20.55
2019-01-24T20:24:58.659Z,17.52
2019-01-24T20:27:30.259Z,16.12
2019-01-24T20:30:01.955Z,16.60
2019-01-24T20:32:33.538Z,17.70
2019-01-24T20:35:06.772Z,18.02
2019-01-24T20:37:38.378Z,16.67
2019-01-24T20:40:11.616Z,15.13
2019-01-24T20:42:44.435Z,18.67
2019-01-24T20:45:16.298Z,15.88
2019-01-24T20:47:49.159Z,15.72
2019-01-24T20:50:20.671Z,15.25
2019-01-24T20:52:52.151Z,24.50
2019-01-24T20:55:23.755Z,19.90
2019-01-24T20:57:55.676Z,24.85
2019-01-24T21:00:27.638Z,15.78
2019-01-24T21:02:59.273Z,15.60
2019-01-24T21:05:31.089Z,17.15
2019-01-24T21:08:03.604Z,15.68
2019-01-24T21:10:35.364Z,14.70
2019-01-24T21:13:07.120Z,15.53
2019-01-24T21:15:39.933Z,17.25
2019-01-24T21:18:11.599Z,16.73
2019-01-24T21:20:43.197Z,25.77
2019-01-24T21:23:14.841Z,22.05
2019-01-24T21:30:47.574Z,16.32
2019-01-24T21:33:19.210Z,15.43
2019-01-24T21:35:50.579Z,17.20
2019-01-24T21:38:21.961Z,16.40
2019-01-24T21:40:53.323Z,15.50
2019-01-24T21:43:24.847Z,16.27
2019-01-24T21:45:56.309Z,16.05
2019-01-24T21:48:27.941Z,17.17
2019-01-24T21:50:59.413Z,17.00
2019-01-24T21:53:30.745Z,15.00
2019-01-24T21:56:02.003Z,15.98
2019-01-24T21:58:33.278Z,15.40
2019-01-24T22:01:05.273Z,14.80
2019-01-24T22:03:36.717Z,17.50
2019-01-24T22:06:09.533Z,16.37
2019-01-24T22:08:41.185Z,14.90
2019-01-24T22:11:12.691Z,15.32
2019-01-24T22:13:43.969Z,15.60
2019-01-24T22:16:15.465Z,16.35
2019-01-24T22:18:47.079Z,17.27
2019-01-24T22:21:18.706Z,17.27
2019-01-24T22:23:50.501Z,16.27
2019-01-24T22:26:22.122Z,19.32
2019-01-24T22:28:53.510Z,18.32
2019-01-24T22:31:24.906Z,17.77
2019-01-24T22:33:56.526Z,19.02
2019-01-24T22:36:28.091Z,18.73
2019-01-24T22:38:59.649Z,20.02
2019-01-24T22:41:31.269Z,18.67
2019-01-24T22:44:02.987Z,19.55
2019-01-24T22:46:34.354Z,21.82
2019-01-24T22:49:06.078Z,19.75
2019-01-24T22:51:37.564Z,19.85
2019-01-24T22:54:09.279Z,23.15
2019-01-24T22:56:40.798Z,21.85
2019-01-24T22:59:12.200Z,21.12
2019-01-24T23:01:53.846Z,21.87
2019-01-24T23:04:26.437Z,21.70
2019-01-24T23:06:57.952Z,28.65
2019-01-24T23:09:29.690Z,25.12
2019-01-24T23:12:01.227Z,23.52
2019-01-24T23:14:32.742Z,23.80
2019-01-24T23:17:04.244Z,24.40
2019-01-24T23:19:35.849Z,22.13
2019-01-24T23:22:07.562Z,22.58
2019-01-24T23:24:39.214Z,23.18
2019-01-24T23:27:10.765Z,23.75
2019-01-24T23:29:42.046Z,23.98
2019-01-24T23:32:13.530Z,22.32
2019-01-24T23:34:45.093Z,20.30
2019-01-24T23:37:16.651Z,23.18
2019-01-24T23:39:52.349Z,22.17
2019-01-24T23:42:21.229Z,24.35
2019-01-24T23:44:52.901Z,19.62
2019-01-24T23:47:24.502Z,20.88
2019-01-24T23:49:55.888Z,20.37
2019-01-24T23:52:27.179Z,20.80
2019-01-24T23:54:59.015Z,20.77
2019-01-24T23:57:30.569Z,20.23
